createdAt,value
2022-10-16T00:01:28.978Z,99.90
2022-10-16T00:03:58.224Z,99.90
2022-10-16T00:06:27.188Z,99.90
2022-10-16T00:08:55.951Z,99.90
2022-10-16T00:11:26.113Z,99.90
2022-10-16T00:13:59.038Z,99.90
2022-10-16T00:16:28.139Z,99.90
2022-10-16T00:18:56.780Z,99.90
2022-10-16T00:21:27.516Z,99.90
2022-10-16T00:24:14.462Z,99.90
2022-10-16T00:26:42.977Z,99.90
2022-10-16T00:29:12.852Z,99.90
2022-10-16T00:31:41.094Z,99.90
2022-10-16T00:34:09.233Z,99.90
2022-10-16T00:36:37.576Z,99.90
2022-10-16T00:39:05.866Z,99.90
2022-10-16T00:41:34.806Z,99.90
2022-10-16T00:44:05.269Z,99.90
2022-10-16T00:46:40.035Z,99.90
2022-10-16T00:49:11.021Z,99.90
2022-10-16T00:51:42.489Z,99.90
2022-10-16T00:54:15.358Z,99.90
2022-10-16T00:56:44.558Z,99.90
2022-10-16T00:59:18.301Z,99.90
2022-10-16T01:01:48.224Z,99.90
2022-10-16T01:04:16.597Z,99.90
2022-10-16T01:06:51.904Z,99.90
2022-10-16T01:09:25.910Z,99.90
2022-10-16T01:12:05.230Z,99.90
2022-10-16T01:14:40.988Z,99.90
2022-10-16T01:17:14.420Z,99.90
2022-10-16T01:20:07.210Z,99.90
2022-10-16T01:22:46.736Z,99.90
2022-10-16T01:25:27.325Z,99.90
2022-10-16T01:27:58.397Z,99.90
2022-10-16T01:30:32.106Z,99.90
2022-10-16T01:33:05.238Z,99.90
2022-10-16T01:35:39.221Z,99.90
2022-10-16T01:38:12.333Z,99.90
2022-10-16T01:40:44.233Z,99.90
2022-10-16T01:43:17.809Z,99.90
2022-10-16T01:45:47.884Z,99.90
2022-10-16T01:48:19.871Z,99.90
2022-10-16T01:51:01.560Z,99.90
2022-10-16T01:53:30.875Z,99.90
2022-10-16T01:56:01.149Z,99.90
2022-10-16T01:58:35.609Z,99.90
2022-10-16T02:01:06.234Z,99.90
2022-10-16T02:03:36.349Z,99.90
2022-10-16T02:06:04.781Z,99.90
2022-10-16T02:08:33.534Z,99.90
2022-10-16T02:11:03.048Z,99.90
2022-10-16T02:13:39.062Z,99.90
2022-10-16T02:16:08.350Z,99.90
2022-10-16T02:18:36.700Z,99.90
2022-10-16T02:21:10.824Z,99.90
2022-10-16T02:23:47.467Z,99.90
2022-10-16T02:26:22.258Z,99.90
2022-10-16T02:28:57.636Z,99.90
2022-10-16T02:31:32.419Z,99.90
2022-10-16T02:34:02.062Z,99.90
2022-10-16T02:36:31.460Z,99.90
2022-10-16T02:39:01.126Z,99.90
2022-10-16T02:41:30.089Z,99.90
2022-10-16T02:43:59.745Z,99.90
2022-10-16T02:46:28.008Z,99.90
2022-10-16T02:48:56.424Z,99.90
2022-10-16T02:51:24.649Z,99.90
2022-10-16T02:53:52.824Z,99.90
2022-10-16T02:56:21.040Z,99.90
2022-10-16T02:58:49.296Z,99.90
2022-10-16T03:01:18.982Z,99.90
2022-10-16T03:03:47.300Z,99.90
2022-10-16T03:06:15.587Z,99.90
2022-10-16T03:08:43.848Z,99.90
2022-10-16T03:11:12.109Z,99.90
2022-10-16T03:13:40.361Z,99.90
2022-10-16T03:16:08.628Z,99.90
2022-10-16T03:18:38.215Z,99.90
2022-10-16T03:21:06.460Z,99.90
2022-10-16T03:23:34.732Z,99.90
2022-10-16T03:26:02.929Z,99.90
2022-10-16T03:28:31.208Z,99.90
2022-10-16T03:30:59.540Z,99.90
2022-10-16T03:33:27.856Z,99.90
2022-10-16T03:35:57.377Z,99.90
2022-10-16T03:38:25.752Z,99.90
2022-10-16T03:40:54.409Z,99.90
2022-10-16T03:43:22.578Z,99.90
2022-10-16T03:45:52.434Z,99.90
2022-10-16T03:48:20.995Z,99.90
2022-10-16T03:50:49.792Z,99.90
2022-10-16T03:53:19.644Z,99.90
2022-10-16T03:55:47.840Z,99.90
2022-10-16T03:58:16.052Z,99.90
2022-10-16T04:00:44.688Z,99.90
2022-10-16T04:03:13.139Z,99.90
2022-10-16T04:05:41.512Z,99.90
2022-10-16T04:08:10.240Z,99.90
2022-10-16T04:10:39.962Z,99.90
2022-10-16T04:13:08.163Z,99.90
2022-10-16T04:15:36.421Z,99.90
2022-10-16T04:18:05.216Z,99.90
2022-10-16T04:20:33.565Z,99.90
2022-10-16T04:23:02.105Z,99.90
2022-10-16T04:25:30.353Z,99.90
2022-10-16T04:27:59.861Z,99.90
2022-10-16T04:30:28.220Z,99.90
2022-10-16T04:32:56.565Z,99.90
2022-10-16T04:35:24.885Z,99.90
2022-10-16T04:37:53.069Z,99.90
2022-10-16T04:40:21.329Z,99.90
2022-10-16T04:42:49.512Z,99.90
2022-10-16T04:45:19.245Z,99.90
2022-10-16T04:47:47.486Z,99.90
2022-10-16T04:50:15.703Z,99.90
2022-10-16T04:53:02.813Z,99.90
2022-10-16T04:55:31.091Z,99.90
2022-10-16T04:57:59.376Z,99.90
2022-10-16T05:00:29.173Z,99.90
2022-10-16T05:02:58.139Z,99.90
2022-10-16T05:05:26.503Z,99.90
2022-10-16T05:07:55.060Z,99.90
2022-10-16T05:10:23.273Z,99.90
2022-10-16T05:12:52.228Z,99.90
2022-10-16T05:15:20.541Z,99.90
2022-10-16T05:17:50.098Z,99.90
2022-10-16T05:20:18.374Z,99.90
2022-10-16T05:22:46.532Z,99.90
2022-10-16T05:25:14.703Z,99.90
2022-10-16T05:27:42.998Z,99.90
2022-10-16T05:30:12.624Z,99.90
2022-10-16T05:32:41.081Z,99.90
2022-10-16T05:35:12.704Z,99.90
2022-10-16T05:37:41.126Z,99.90
2022-10-16T05:40:10.809Z,99.90
2022-10-16T05:42:39.207Z,99.90
2022-10-16T05:45:08.533Z,99.90
2022-10-16T05:47:36.777Z,99.90
2022-10-16T05:50:06.196Z,99.90
2022-10-16T05:52:35.802Z,99.90
2022-10-16T05:55:04.302Z,99.90
2022-10-16T05:57:32.561Z,99.90
2022-10-16T06:00:00.813Z,99.90
2022-10-16T06:02:29.141Z,99.90
2022-10-16T06:04:57.359Z,99.90
2022-10-16T06:07:26.026Z,99.90
2022-10-16T06:09:55.952Z,99.90
2022-10-16T06:12:24.471Z,99.90
2022-10-16T06:14:52.708Z,99.90
2022-10-16T06:17:20.926Z,99.90
2022-10-16T06:19:49.157Z,99.90
2022-10-16T06:22:17.335Z,99.90
2022-10-16T06:24:45.510Z,99.90
2022-10-16T06:27:15.105Z,99.90
2022-10-16T06:29:44.022Z,99.90
2022-10-16T06:32:12.160Z,99.90
2022-10-16T06:34:43.384Z,99.90
2022-10-16T06:37:15.807Z,99.90
2022-10-16T06:39:45.592Z,99.90
2022-10-16T06:42:18.124Z,99.90
2022-10-16T06:44:47.221Z,99.90
2022-10-16T06:47:15.357Z,99.90
2022-10-16T06:49:43.650Z,99.90
2022-10-16T06:52:11.834Z,99.90
2022-10-16T06:54:42.546Z,99.90
2022-10-16T06:57:10.952Z,99.90
2022-10-16T06:59:42.259Z,99.90
2022-10-16T07:02:13.418Z,99.90
2022-10-16T07:04:41.621Z,99.90
2022-10-16T07:07:09.776Z,99.90
2022-10-16T07:09:37.952Z,99.90
2022-10-16T07:12:06.717Z,99.90
2022-10-16T07:14:34.902Z,99.90
2022-10-16T07:17:04.788Z,99.90
2022-10-16T07:19:34.419Z,99.90
2022-10-16T07:22:04.025Z,99.90
2022-10-16T07:24:32.335Z,99.90
2022-10-16T07:27:00.508Z,99.90
2022-10-16T07:29:28.713Z,99.90
2022-10-16T07:31:56.959Z,99.90
2022-10-16T07:34:27.535Z,99.90
2022-10-16T07:36:56.065Z,99.90
2022-10-16T07:39:24.269Z,99.90
2022-10-16T07:41:52.525Z,99.90
2022-10-16T07:44:20.664Z,99.90
2022-10-16T07:46:48.880Z,99.90
2022-10-16T07:49:17.215Z,99.90
2022-10-16T07:51:46.742Z,99.90
2022-10-16T07:54:14.935Z,99.90
2022-10-16T07:56:44.078Z,99.90
2022-10-16T07:59:12.852Z,99.90
2022-10-16T08:01:42.963Z,99.90
2022-10-16T08:04:11.480Z,99.90
2022-10-16T08:06:41.001Z,99.90
2022-10-16T08:09:11.022Z,99.90
2022-10-16T08:11:39.191Z,99.90
2022-10-16T08:14:07.489Z,99.90
2022-10-16T08:16:35.680Z,99.90
2022-10-16T08:19:03.961Z,99.90
2022-10-16T08:21:32.116Z,99.90
2022-10-16T08:24:01.205Z,99.90
2022-10-16T08:26:30.895Z,99.90
2022-10-16T08:28:59.316Z,99.90
2022-10-16T08:31:28.349Z,99.90
2022-10-16T08:33:56.656Z,99.90
2022-10-16T08:36:24.995Z,99.90
2022-10-16T08:38:55.236Z,99.90
2022-10-16T08:41:54.273Z,99.90
2022-10-16T08:44:39.368Z,99.90
2022-10-16T08:47:15.779Z,99.90
2022-10-16T08:49:49.162Z,99.90
2022-10-16T08:52:17.424Z,99.90
2022-10-16T08:54:49.362Z,99.90
2022-10-16T08:57:24.234Z,99.90
2022-10-16T08:59:55.659Z,99.90
2022-10-16T09:02:33.192Z,99.90
2022-10-16T09:05:23.775Z,99.90
2022-10-16T09:08:02.198Z,99.90
2022-10-16T09:10:43.920Z,99.90
2022-10-16T09:13:23.217Z,99.90
2022-10-16T09:16:00.788Z,99.90
2022-10-16T09:18:38.248Z,99.90
2022-10-16T09:21:12.985Z,99.90
2022-10-16T09:23:41.355Z,99.90
2022-10-16T09:26:14.385Z,99.90
2022-10-16T09:28:44.500Z,99.90
2022-10-16T09:31:18.846Z,99.90
2022-10-16T09:33:51.063Z,99.90
2022-10-16T09:36:19.944Z,99.90
2022-10-16T09:38:48.116Z,99.90
2022-10-16T09:41:22.520Z,99.90
2022-10-16T09:43:56.348Z,99.90
2022-10-16T09:46:28.985Z,99.90
2022-10-16T09:48:59.680Z,99.90
2022-10-16T09:51:31.291Z,99.90
2022-10-16T09:54:02.154Z,99.90
2022-10-16T09:56:33.340Z,99.90
2022-10-16T09:59:05.480Z,99.90
2022-10-16T10:01:39.817Z,99.90
2022-10-16T10:04:09.202Z,99.90
2022-10-16T10:06:39.944Z,99.90
2022-10-16T10:09:18.565Z,99.90
2022-10-16T10:11:50.913Z,99.90
2022-10-16T10:14:26.550Z,99.90
2022-10-16T10:17:04.286Z,99.90
2022-10-16T10:19:39.113Z,99.90
2022-10-16T10:22:18.955Z,99.90
2022-10-16T10:24:56.268Z,99.90
2022-10-16T10:27:31.615Z,99.90
2022-10-16T10:30:08.234Z,99.90
2022-10-16T10:32:44.199Z,99.90
2022-10-16T10:35:22.980Z,99.90
2022-10-16T10:38:07.777Z,99.90
2022-10-16T10:40:51.565Z,99.90
2022-10-16T10:43:32.120Z,99.90
2022-10-16T10:46:06.023Z,99.90
2022-10-16T10:48:53.893Z,99.90
2022-10-16T10:51:31.079Z,99.90
2022-10-16T10:54:09.706Z,99.90
2022-10-16T10:56:46.976Z,99.90
2022-10-16T10:59:51.619Z,99.90
2022-10-16T11:02:28.720Z,99.90
2022-10-16T11:05:35.696Z,99.90
2022-10-16T11:08:10.086Z,99.90
2022-10-16T11:10:46.615Z,99.90
2022-10-16T11:13:26.245Z,99.90
2022-10-16T11:15:59.060Z,99.90
2022-10-16T11:18:39.445Z,99.90
2022-10-16T11:21:12.251Z,99.90
2022-10-16T11:23:44.852Z,99.80
2022-10-16T11:26:18.324Z,99.30
2022-10-16T11:28:50.464Z,97.90
2022-10-16T11:31:25.000Z,97.80
2022-10-16T11:36:40.753Z,97.80
2022-10-16T11:39:20.419Z,97.30
2022-10-16T11:41:51.664Z,97.40
2022-10-16T11:44:48.896Z,97.40
2022-10-16T11:50:28.422Z,97.00
2022-10-16T11:53:05.418Z,97.20
2022-10-16T11:55:41.628Z,97.20
2022-10-16T11:58:20.322Z,97.40
2022-10-16T12:00:55.323Z,97.60
2022-10-16T12:03:29.370Z,96.00
2022-10-16T12:06:26.079Z,95.80
2022-10-16T12:08:55.759Z,96.10
2022-10-16T12:11:34.046Z,94.70
2022-10-16T12:14:57.316Z,94.20
2022-10-16T12:17:28.640Z,94.40
2022-10-16T12:20:02.050Z,94.30
2022-10-16T12:22:36.857Z,92.90
2022-10-16T12:25:21.180Z,93.10
2022-10-16T12:27:57.475Z,91.80
2022-10-16T12:30:29.950Z,92.60
2022-10-16T12:33:03.769Z,91.90
2022-10-16T12:35:34.727Z,92.40
2022-10-16T12:38:18.927Z,92.20
2022-10-16T12:40:55.999Z,92.80
2022-10-16T12:43:30.078Z,92.30
2022-10-16T12:46:03.524Z,92.30
2022-10-16T12:48:42.414Z,92.40
2022-10-16T12:51:35.196Z,92.40
2022-10-16T12:54:06.854Z,92.70
2022-10-16T12:56:46.283Z,92.60
2022-10-16T12:59:33.436Z,92.70
2022-10-16T13:02:36.598Z,92.20
2022-10-16T13:05:19.959Z,92.40
2022-10-16T13:07:58.380Z,92.50
2022-10-16T13:10:35.277Z,92.30
2022-10-16T13:13:32.195Z,91.20
2022-10-16T13:16:14.088Z,91.60
2022-10-16T13:18:53.176Z,91.70
2022-10-16T13:21:33.427Z,91.60
2022-10-16T13:24:09.856Z,92.00
2022-10-16T13:26:46.764Z,91.70
2022-10-16T13:29:15.502Z,92.00
2022-10-16T13:31:46.016Z,92.40
2022-10-16T13:34:19.161Z,92.60
2022-10-16T13:36:51.180Z,92.50
2022-10-16T13:39:25.099Z,93.30
2022-10-16T13:44:50.625Z,93.70
2022-10-16T13:47:21.090Z,94.80
2022-10-16T13:50:00.720Z,94.30
2022-10-16T13:52:29.321Z,94.60
2022-10-16T13:55:01.020Z,94.50
2022-10-16T13:57:31.969Z,94.70
2022-10-16T14:00:00.219Z,94.80
2022-10-16T14:02:32.509Z,95.10
2022-10-16T14:05:01.151Z,95.60
2022-10-16T14:07:32.146Z,96.10
2022-10-16T14:10:04.997Z,96.20
2022-10-16T14:12:35.235Z,96.80
2022-10-16T14:15:03.936Z,97.10
2022-10-16T14:17:34.880Z,97.30
2022-10-16T14:20:07.458Z,97.40
2022-10-16T14:22:37.870Z,97.80
2022-10-16T14:25:27.406Z,97.70
2022-10-16T14:28:05.865Z,97.90
2022-10-16T14:30:36.014Z,98.20
2022-10-16T14:33:06.248Z,98.40
2022-10-16T14:35:37.096Z,98.40
2022-10-16T14:38:07.105Z,98.20
2022-10-16T14:40:38.959Z,98.50
2022-10-16T14:43:08.700Z,98.30
2022-10-16T14:45:37.948Z,98.40
2022-10-16T14:48:19.855Z,98.60
2022-10-16T14:50:48.524Z,98.80
2022-10-16T14:53:17.260Z,98.90
2022-10-16T14:55:46.423Z,99.00
2022-10-16T14:58:19.808Z,99.00
2022-10-16T15:00:48.293Z,99.10
2022-10-16T15:03:16.878Z,99.10
2022-10-16T15:05:45.169Z,99.00
2022-10-16T15:08:14.028Z,99.20
2022-10-16T15:10:45.209Z,99.30
2022-10-16T15:13:17.841Z,99.40
2022-10-16T15:15:47.009Z,99.60
2022-10-16T15:18:21.074Z,99.60
2022-10-16T15:20:51.759Z,99.70
2022-10-16T15:23:21.990Z,99.80
2022-10-16T15:25:51.929Z,99.90
2022-10-16T15:28:23.016Z,99.90
2022-10-16T15:30:53.100Z,99.90
2022-10-16T15:33:23.842Z,99.90
2022-10-16T15:35:53.441Z,99.90
2022-10-16T15:38:23.595Z,99.90
2022-10-16T15:40:52.684Z,99.90
2022-10-16T15:43:22.525Z,99.90
2022-10-16T15:46:02.485Z,99.90
2022-10-16T15:48:31.400Z,99.90
2022-10-16T15:50:59.699Z,99.90
2022-10-16T15:53:27.929Z,99.90
2022-10-16T15:55:56.084Z,99.90
2022-10-16T15:58:25.662Z,99.90
2022-10-16T16:00:57.790Z,99.90
2022-10-16T16:03:26.026Z,99.90
2022-10-16T16:05:54.278Z,99.90
2022-10-16T16:08:22.648Z,99.90
2022-10-16T16:10:59.967Z,99.90
2022-10-16T16:13:29.646Z,99.90
2022-10-16T16:15:57.888Z,99.90
2022-10-16T16:18:26.822Z,99.90
2022-10-16T16:20:55.663Z,99.90
2022-10-16T16:23:24.235Z,99.90
2022-10-16T16:26:12.847Z,99.90
2022-10-16T16:28:44.266Z,99.90
2022-10-16T16:31:12.612Z,99.90
2022-10-16T16:33:40.776Z,99.90
2022-10-16T16:36:14.496Z,99.90
2022-10-16T16:38:43.973Z,99.90
2022-10-16T16:41:15.813Z,99.90
2022-10-16T16:43:45.769Z,99.90
2022-10-16T16:46:14.193Z,99.90
2022-10-16T16:48:43.318Z,99.90
2022-10-16T16:51:16.413Z,99.90
2022-10-16T16:53:45.376Z,99.90
2022-10-16T16:56:13.699Z,99.90
2022-10-16T16:58:42.347Z,99.90
2022-10-16T17:01:19.841Z,99.90
2022-10-16T17:03:51.620Z,99.90
2022-10-16T17:06:21.352Z,99.90
2022-10-16T17:08:50.443Z,99.90
2022-10-16T17:11:21.197Z,99.90
2022-10-16T17:13:53.951Z,99.90
2022-10-16T17:16:27.917Z,99.90
2022-10-16T17:18:56.263Z,99.90
2022-10-16T17:21:24.485Z,99.90
2022-10-16T17:23:53.647Z,99.90
2022-10-16T17:26:21.910Z,99.90
2022-10-16T17:28:53.268Z,99.90
2022-10-16T17:31:24.474Z,99.90
2022-10-16T17:33:54.289Z,99.90
2022-10-16T17:36:23.536Z,99.90
2022-10-16T17:38:51.725Z,99.90
2022-10-16T17:41:22.590Z,99.90
2022-10-16T17:43:51.780Z,99.90
2022-10-16T17:46:21.839Z,99.90
2022-10-16T17:48:52.209Z,99.90
2022-10-16T17:51:24.328Z,99.90
2022-10-16T17:53:53.528Z,99.90
2022-10-16T17:56:22.448Z,99.90
2022-10-16T17:58:52.018Z,99.90
2022-10-16T18:01:21.865Z,99.90
2022-10-16T18:03:51.933Z,99.90
2022-10-16T18:06:22.757Z,99.90
2022-10-16T18:08:53.086Z,99.90
2022-10-16T18:11:22.292Z,99.90
2022-10-16T18:13:53.524Z,99.90
2022-10-16T18:16:21.967Z,99.90
2022-10-16T18:18:50.373Z,99.90
2022-10-16T18:21:21.187Z,99.90
2022-10-16T18:23:51.811Z,99.90
2022-10-16T18:26:22.709Z,99.90
2022-10-16T18:28:53.751Z,99.90
2022-10-16T18:31:22.965Z,99.90
2022-10-16T18:33:51.457Z,99.90
2022-10-16T18:36:21.587Z,99.90
2022-10-16T18:38:50.274Z,99.90
2022-10-16T18:41:19.163Z,99.90
2022-10-16T18:43:48.911Z,99.90
2022-10-16T18:46:19.052Z,99.90
2022-10-16T18:48:48.203Z,99.90
2022-10-16T18:51:19.538Z,99.90
2022-10-16T18:53:50.876Z,99.90
2022-10-16T18:56:20.769Z,99.90
2022-10-16T18:58:53.544Z,99.90
2022-10-16T19:01:24.434Z,99.90
2022-10-16T19:03:56.719Z,99.90
2022-10-16T19:06:25.523Z,99.90
2022-10-16T19:08:54.698Z,99.90
2022-10-16T19:11:25.246Z,99.90
2022-10-16T19:13:57.349Z,99.90
2022-10-16T19:16:27.568Z,99.90
2022-10-16T19:18:57.605Z,99.90
2022-10-16T19:21:27.374Z,99.90
2022-10-16T19:23:57.050Z,99.90
2022-10-16T19:26:25.916Z,99.90
2022-10-16T19:28:58.459Z,99.90
2022-10-16T19:31:29.109Z,99.90
2022-10-16T19:33:59.192Z,99.90
2022-10-16T19:36:29.494Z,99.90
2022-10-16T19:38:59.490Z,99.90
2022-10-16T19:41:28.675Z,99.90
2022-10-16T19:44:02.144Z,99.90
2022-10-16T19:46:31.874Z,99.90
2022-10-16T19:49:01.572Z,99.90
2022-10-16T19:51:30.775Z,99.90
2022-10-16T19:54:01.064Z,99.90
2022-10-16T19:56:30.891Z,99.90
2022-10-16T19:59:01.188Z,99.90
2022-10-16T20:01:32.583Z,99.90
2022-10-16T20:04:01.268Z,99.90
2022-10-16T20:06:29.707Z,99.90
2022-10-16T20:08:58.602Z,99.90
2022-10-16T20:11:28.488Z,99.90
2022-10-16T20:13:57.203Z,99.90
2022-10-16T20:16:28.125Z,99.90
2022-10-16T20:18:56.515Z,99.90
2022-10-16T20:21:26.779Z,99.90
2022-10-16T20:23:55.150Z,99.90
2022-10-16T20:26:25.897Z,99.90
2022-10-16T20:28:55.371Z,99.90
2022-10-16T20:31:25.372Z,99.90
2022-10-16T20:33:56.377Z,99.90
2022-10-16T20:36:26.240Z,99.90
2022-10-16T20:38:55.097Z,99.90
2022-10-16T20:41:23.839Z,99.90
2022-10-16T20:43:53.338Z,99.90
2022-10-16T20:46:23.550Z,99.90
2022-10-16T20:48:52.623Z,99.90
2022-10-16T20:51:24.919Z,99.90
2022-10-16T20:53:55.251Z,99.90
2022-10-16T20:56:24.893Z,99.90
2022-10-16T20:58:53.471Z,99.90
2022-10-16T21:01:23.386Z,99.90
2022-10-16T21:03:53.689Z,99.90
2022-10-16T21:06:24.006Z,99.90
2022-10-16T21:08:52.512Z,99.90
2022-10-16T21:11:22.685Z,99.90
2022-10-16T21:13:53.728Z,99.90
2022-10-16T21:16:22.140Z,99.90
2022-10-16T21:18:51.376Z,99.90
2022-10-16T21:21:25.057Z,99.90
2022-10-16T21:23:54.057Z,99.90
2022-10-16T21:26:26.259Z,99.90
2022-10-16T21:28:55.053Z,99.90
2022-10-16T21:31:23.236Z,99.90
2022-10-16T21:33:52.766Z,99.90
2022-10-16T21:36:24.083Z,99.90
2022-10-16T21:38:52.973Z,99.90
2022-10-16T21:41:22.882Z,99.90
2022-10-16T21:43:51.620Z,99.90
2022-10-16T21:46:24.535Z,99.90
2022-10-16T21:48:54.243Z,99.90
2022-10-16T21:51:27.400Z,99.90
2022-10-16T21:53:55.705Z,99.90
2022-10-16T21:56:24.139Z,99.90
2022-10-16T21:58:52.441Z,99.90
2022-10-16T22:01:23.700Z,99.90
2022-10-16T22:03:52.673Z,99.90
2022-10-16T22:06:24.512Z,99.90
2022-10-16T22:08:53.703Z,99.90
2022-10-16T22:11:25.031Z,99.90
2022-10-16T22:13:54.352Z,99.90
2022-10-16T22:16:26.296Z,99.90
2022-10-16T22:18:55.042Z,99.90
2022-10-16T22:21:25.344Z,99.90
2022-10-16T22:23:53.772Z,99.90
2022-10-16T22:26:23.168Z,99.90
2022-10-16T22:28:51.679Z,99.90
2022-10-16T22:31:21.224Z,99.90
2022-10-16T22:33:49.407Z,99.90
2022-10-16T22:36:17.706Z,99.90
2022-10-16T22:38:47.325Z,99.90
2022-10-16T22:41:16.402Z,99.90
2022-10-16T22:43:48.085Z,99.90
2022-10-16T22:46:18.241Z,99.90
2022-10-16T22:48:46.772Z,99.90
2022-10-16T22:51:17.020Z,99.90
2022-10-16T22:53:47.869Z,99.90
2022-10-16T22:56:17.633Z,99.90
2022-10-16T22:58:45.992Z,99.90
2022-10-16T23:01:16.483Z,99.90
2022-10-16T23:03:44.865Z,99.90
2022-10-16T23:06:13.135Z,99.90
2022-10-16T23:08:41.843Z,99.90
2022-10-16T23:11:13.876Z,99.90
2022-10-16T23:13:45.367Z,99.90
2022-10-16T23:16:15.620Z,99.90
2022-10-16T23:18:44.823Z,99.90
2022-10-16T23:21:14.738Z,99.90
2022-10-16T23:23:43.844Z,99.90
2022-10-16T23:26:15.182Z,99.90
2022-10-16T23:28:43.733Z,99.90
2022-10-16T23:31:12.775Z,99.90
2022-10-16T23:33:41.196Z,99.90
2022-10-16T23:36:11.135Z,99.90
2022-10-16T23:38:39.666Z,99.90
2022-10-16T23:41:08.513Z,99.90
2022-10-16T23:43:38.179Z,99.90
2022-10-16T23:46:07.332Z,99.90
2022-10-16T23:48:38.209Z,99.90
2022-10-16T23:51:07.206Z,99.90
2022-10-16T23:53:35.903Z,99.90
2022-10-16T23:56:04.464Z,99.90
2022-10-16T23:58:32.873Z,99.90
